Time;durP1;ratioP1;P1;durP2;ratioP2;P2;SDS_P1;SDS_P2;PMS_P1;PMS_P2;Temp;Humidity;BMP_temperature;BMP_pressure;BME280_temperature;BME280_humidity;BME280_pressure;Samples;Min_cycle;Max_cycle;Signal;HPM_P1;HPM_P2
2022/05/12 00:00:36;;;;;;;2.20;2.05;;;;;;;8.83;100.00;91404.34;5033947;28;20029;-66
2022/05/12 00:03:04;;;;;;;2.40;2.20;;;;;;;8.88;100.00;91411.47;5033809;28;20025;-66
2022/05/12 00:05:29;;;;;;;2.60;2.20;;;;;;;8.91;100.00;91406.38;5033815;28;20030;-66
2022/05/12 00:07:55;;;;;;;2.85;2.22;;;;;;;8.92;100.00;91404.50;5033696;28;20037;-66
2022/05/12 00:10:24;;;;;;;2.28;2.08;;;;;;;8.83;100.00;91391.06;5033739;28;20029;-66
2022/05/12 00:12:50;;;;;;;3.83;2.78;;;;;;;8.85;100.00;91394.25;5033558;28;20029;-67
2022/05/12 00:15:21;;;;;;;3.28;2.28;;;;;;;8.89;100.00;91392.59;5033686;28;20041;-66
2022/05/12 00:17:46;;;;;;;3.58;2.67;;;;;;;8.94;100.00;91397.03;5033773;28;20511;-67
2022/05/12 00:20:13;;;;;;;3.60;2.45;;;;;;;8.94;100.00;91397.03;5033768;28;20029;-66
2022/05/12 00:22:39;;;;;;;2.58;2.22;;;;;;;8.97;100.00;91383.97;5033817;28;20033;-66
2022/05/12 00:25:10;;;;;;;4.82;2.72;;;;;;;8.99;100.00;91391.66;5033466;28;20042;-67
2022/05/12 00:27:35;;;;;;;2.40;2.20;;;;;;;8.95;100.00;91391.44;5033558;28;20037;-67
2022/05/12 00:30:01;;;;;;;2.13;1.92;;;;;;;8.93;100.00;91387.50;5033367;28;20083;-67
2022/05/12 00:32:26;;;;;;;2.38;2.17;;;;;;;8.92;100.00;91396.53;5033352;28;20036;-67
2022/05/12 00:34:52;;;;;;;3.22;2.63;;;;;;;8.92;100.00;91394.66;5033107;28;20064;-67
2022/05/12 00:37:17;;;;;;;2.50;2.30;;;;;;;9.03;100.00;91389.22;5033274;28;20040;-67
2022/05/12 00:39:43;;;;;;;2.38;2.10;;;;;;;9.07;100.00;91396.31;5033161;28;20048;-67
2022/05/12 00:42:08;;;;;;;3.00;2.05;;;;;;;9.12;100.00;91385.63;5032972;28;20063;-67
2022/05/12 00:44:34;;;;;;;2.65;2.17;;;;;;;9.19;100.00;91386.06;5033001;28;20056;-67
2022/05/12 00:46:59;;;;;;;2.45;2.20;;;;;;;9.19;100.00;91391.38;5032048;28;20080;-66
2022/05/12 00:49:29;;;;;;;2.35;1.98;;;;;;;9.23;100.00;91388.94;5032833;28;20531;-66
2022/05/12 00:52:06;;;;;;;2.30;2.10;;;;;;;9.26;100.00;91393.66;5032962;28;20021;-66
2022/05/12 00:54:47;;;;;;;2.40;2.10;;;;;;;9.28;100.00;91383.53;5032777;28;20037;-67
2022/05/12 00:57:17;;;;;;;2.05;1.92;;;;;;;9.28;100.00;91386.97;5032852;28;20057;-66
2022/05/12 00:59:43;;;;;;;2.30;2.10;;;;;;;9.24;100.00;91385.97;5031511;28;20025;-66
2022/05/12 01:02:15;;;;;;;2.42;2.08;;;;;;;9.20;100.00;91387.63;5031433;28;20486;-66
2022/05/12 01:04:43;;;;;;;2.92;2.35;;;;;;;9.16;100.00;91386.66;5032581;28;20033;-67
2022/05/12 01:07:08;;;;;;;3.75;2.13;;;;;;;9.09;100.00;91375.59;5032637;28;20037;-67
2022/05/12 01:09:34;;;;;;;2.30;2.10;;;;;;;9.12;100.00;91380.31;5031377;28;20067;-67
2022/05/12 01:12:01;;;;;;;2.55;2.10;;;;;;;8.99;100.00;91375.72;5032583;28;20029;-67
2022/05/12 01:14:27;;;;;;;3.15;1.90;;;;;;;9.02;100.00;91392.97;5032389;28;20041;-67
2022/05/12 01:16:55;;;;;;;2.13;1.90;;;;;;;9.02;100.00;91391.09;5032475;28;20026;-67
2022/05/12 01:19:23;;;;;;;2.90;2.42;;;;;;;8.93;100.00;91387.50;5032660;28;20033;-67
2022/05/12 01:21:51;;;;;;;3.67;2.15;;;;;;;8.91;100.00;91393.09;5032410;28;20033;-67
2022/05/12 01:24:19;;;;;;;2.50;2.22;;;;;;;8.89;100.00;91397.13;5032270;28;20045;-67
2022/05/12 01:26:45;;;;;;;2.65;2.45;;;;;;;8.72;100.00;91391.50;5032313;28;20057;-67
2022/05/12 01:29:11;;;;;;;3.30;2.25;;;;;;;8.69;100.00;91404.28;5032207;28;20404;-67
2022/05/12 01:31:37;;;;;;;2.25;2.08;;;;;;;8.61;100.00;91399.59;5032218;28;20029;-66
2022/05/12 01:34:05;;;;;;;2.17;1.95;;;;;;;8.57;100.00;91400.44;5032002;28;20407;-66
2022/05/12 01:36:31;;;;;;;2.30;2.00;;;;;;;8.52;100.00;91398.66;5032112;28;20076;-66
2022/05/12 01:38:57;;;;;;;3.53;2.65;;;;;;;8.50;100.00;91400.78;5032099;28;20496;-67
2022/05/12 01:41:22;;;;;;;3.78;2.35;;;;;;;8.47;100.00;91401.34;5032012;28;20025;-66
2022/05/12 01:43:48;;;;;;;2.22;2.03;;;;;;;8.47;100.00;91393.41;5031919;28;20025;-66
2022/05/12 01:46:14;;;;;;;2.95;2.20;;;;;;;8.47;100.00;91397.91;5031966;28;20041;-66
2022/05/12 01:48:40;;;;;;;2.58;2.22;;;;;;;8.45;100.00;91392.09;5031671;28;20034;-66
2022/05/12 01:51:06;;;;;;;2.60;1.88;;;;;;;8.48;100.00;91402.13;5031886;28;20105;-66
2022/05/12 01:53:32;;;;;;;2.65;2.08;;;;;;;8.48;100.00;91389.66;5031875;28;20029;-66
2022/05/12 01:55:58;;;;;;;6.63;2.50;;;;;;;8.53;100.00;91394.94;5032060;28;20380;-66
2022/05/12 01:58:24;;;;;;;4.10;1.80;;;;;;;8.50;100.00;91394.69;5031547;28;20112;-66
2022/05/12 02:00:50;;;;;;;2.95;2.53;;;;;;;8.55;100.00;91398.09;5031720;28;20452;-65
2022/05/12 02:03:15;;;;;;;4.18;2.42;;;;;;;8.51;100.00;91394.41;5031559;28;20468;-66
2022/05/12 02:05:42;;;;;;;4.80;2.42;;;;;;;8.54;100.00;91401.81;5031629;28;20029;-65
2022/05/12 02:08:11;;;;;;;1.92;1.77;;;;;;;8.53;100.00;91399.44;5031891;28;20037;-65
2022/05/12 02:10:38;;;;;;;2.08;1.98;;;;;;;8.48;100.00;91397.63;5030723;28;20515;-65
2022/05/12 02:13:08;;;;;;;3.60;2.40;;;;;;;8.47;100.00;91395.25;5031330;28;20037;-66
2022/05/12 02:15:35;;;;;;;2.30;2.10;;;;;;;8.43;100.00;91405.66;5031742;28;20033;-66
2022/05/12 02:18:01;;;;;;;2.38;2.17;;;;;;;8.39;100.00;91402.00;5030155;28;20415;-66
2022/05/12 02:20:27;;;;;;;2.80;2.00;;;;;;;8.42;100.00;91404.06;5031448;28;20026;-67
2022/05/12 02:22:53;;;;;;;2.03;1.92;;;;;;;8.45;100.00;91408.81;5031272;28;20036;-67
2022/05/12 02:25:19;;;;;;;2.33;2.13;;;;;;;8.40;100.00;91406.22;5031314;28;20412;-67
2022/05/12 02:27:46;;;;;;;5.47;1.80;;;;;;;8.41;100.00;91410.44;5031327;28;20036;-67
2022/05/12 02:30:32;;;;;;;2.25;2.05;;;;;;;8.35;100.00;91403.59;5031291;28;20122;-67
2022/05/12 02:32:58;;;;;;;2.33;2.13;;;;;;;8.26;100.00;91406.06;5030797;28;20099;-66
2022/05/12 02:35:25;;;;;;;1.70;1.60;;;;;;;8.26;100.00;91410.59;5031287;28;20506;-66
2022/05/12 02:37:51;;;;;;;3.30;2.55;;;;;;;8.22;100.00;91404.28;5031258;28;20030;-66
2022/05/12 02:40:20;;;;;;;2.42;2.03;;;;;;;8.23;100.00;91409.28;5031233;28;20040;-66
2022/05/12 02:42:46;;;;;;;1.98;1.77;;;;;;;8.26;100.00;91402.63;5031128;28;20033;-66
2022/05/12 02:45:12;;;;;;;2.75;2.28;;;;;;;8.23;100.00;91403.22;5031249;28;20037;-66
2022/05/12 02:47:40;;;;;;;2.85;2.28;;;;;;;8.21;100.00;91408.78;5032017;28;20083;-66
2022/05/12 02:50:06;;;;;;;1.92;1.83;;;;;;;8.24;100.00;91408.22;5031929;28;20107;-66
2022/05/12 02:52:32;;;;;;;2.80;2.30;;;;;;;8.20;100.00;91401.09;5031044;28;20108;-66
2022/05/12 02:54:57;;;;;;;2.75;2.05;;;;;;;8.30;100.00;91395.69;5030974;28;20116;-66
2022/05/12 02:57:23;;;;;;;2.58;2.30;;;;;;;8.35;100.00;91403.59;5031030;28;20056;-65
2022/05/12 02:59:48;;;;;;;2.15;1.98;;;;;;;8.34;100.00;91400.16;5031015;28;20117;-66
2022/05/12 03:02:14;;;;;;;2.40;2.13;;;;;;;8.15;100.00;91379.97;5030931;28;20017;-66
2022/05/12 03:04:39;;;;;;;2.38;2.10;;;;;;;8.24;100.00;91396.84;5030966;28;20590;-66
2022/05/12 03:07:05;;;;;;;2.30;2.10;;;;;;;8.20;100.00;91412.50;5030964;28;20061;-66
2022/05/12 03:09:30;;;;;;;3.03;2.33;;;;;;;8.13;100.00;91398.78;5031581;28;20033;-65
2022/05/12 03:11:56;;;;;;;2.40;2.20;;;;;;;8.23;100.00;91413.81;5034880;28;20408;-65
2022/05/12 03:14:22;;;;;;;2.08;1.88;;;;;;;8.29;100.00;91412.66;5034658;28;20087;-65
2022/05/12 03:16:47;;;;;;;4.47;2.75;;;;;;;8.33;100.00;91408.38;5035002;28;20503;-66
2022/05/12 03:19:14;;;;;;;3.67;2.70;;;;;;;8.34;100.00;91413.41;5034573;28;20033;-66
2022/05/12 03:21:40;;;;;;;2.97;2.60;;;;;;;8.35;100.00;91406.25;5034659;28;20076;-67
2022/05/12 03:24:05;;;;;;;6.03;3.28;;;;;;;8.36;100.00;91408.66;5034521;28;20030;-66
2022/05/12 03:26:32;;;;;;;6.18;3.47;;;;;;;8.31;100.00;91402.56;5034547;28;20112;-67
2022/05/12 03:28:57;;;;;;;3.85;2.95;;;;;;;8.34;100.00;91410.78;5034532;28;20072;-66
2022/05/12 03:31:23;;;;;;;2.17;2.00;;;;;;;8.48;100.00;91420.69;5034414;28;20112;-66
2022/05/12 03:33:48;;;;;;;2.10;1.98;;;;;;;8.48;100.00;91418.84;5034309;28;20030;-66
2022/05/12 03:36:15;;;;;;;3.55;2.60;;;;;;;8.50;100.00;91423.84;5034629;28;20025;-66
2022/05/12 03:38:42;;;;;;;15.15;5.78;;;;;;;8.51;100.00;91428.88;5034356;28;20029;-66
2022/05/12 03:41:07;;;;;;;4.63;2.90;;;;;;;8.58;100.00;91416.06;5034301;28;20029;-65
2022/05/12 03:46:17;;;;;;;2.50;2.22;;;;;;;8.73;100.00;91420.41;5034198;28;20422;-65
2022/05/12 03:48:42;;;;;;;2.95;2.60;;;;;;;8.84;100.00;91424.50;5033818;28;20117;-66
2022/05/12 03:51:08;;;;;;;2.63;2.30;;;;;;;8.99;100.00;91429.63;5033998;28;20033;-66
2022/05/12 03:53:35;;;;;;;3.05;2.13;;;;;;;9.14;100.00;91430.47;5033843;28;20057;-66
2022/05/12 03:56:01;;;;;;;3.97;2.75;;;;;;;9.13;100.00;91411.09;5034037;28;20033;-66
2022/05/12 03:58:26;;;;;;;2.70;2.38;;;;;;;9.36;100.00;91432.53;5034033;28;20033;-66
2022/05/12 04:00:53;;;;;;;4.53;2.20;;;;;;;9.49;100.00;91437.13;5033962;28;20052;-66
2022/05/12 04:03:19;;;;;;;4.00;2.42;;;;;;;9.48;100.00;91441.66;5033997;28;20033;-66
2022/05/12 04:05:45;;;;;;;4.15;2.30;;;;;;;9.57;100.00;91449.75;5033484;28;20116;-66
2022/05/12 04:08:10;;;;;;;2.75;2.45;;;;;;;9.63;100.00;91448.59;5033711;28;20587;-66
2022/05/12 04:10:36;;;;;;;2.28;2.05;;;;;;;9.72;100.00;91446.84;5033701;28;20112;-67
2022/05/12 04:13:01;;;;;;;5.13;3.42;;;;;;;9.80;100.00;91443.53;5033412;28;20033;-66
2022/05/12 04:15:28;;;;;;;4.72;3.05;;;;;;;9.85;100.00;91450.63;5033583;28;20048;-67
2022/05/12 04:18:03;;;;;;;6.15;3.72;;;;;;;9.91;100.00;91439.63;5033669;28;20038;-67
2022/05/12 04:20:31;;;;;;;5.05;3.20;;;;;;;9.96;100.00;91448.63;5033345;28;20032;-67
2022/05/12 04:22:57;;;;;;;4.05;2.47;;;;;;;10.01;100.00;91449.31;5033429;28;20036;-67
2022/05/12 04:25:23;;;;;;;3.30;2.47;;;;;;;10.07;100.00;91445.47;5033361;28;20025;-66
2022/05/12 04:27:49;;;;;;;2.60;2.40;;;;;;;10.14;100.00;91455.75;5033308;28;20091;-66
2022/05/12 04:30:17;;;;;;;8.02;4.47;;;;;;;10.28;100.00;91448.59;5033394;28;20033;-66
2022/05/12 04:32:42;;;;;;;5.85;2.55;;;;;;;10.37;100.00;91454.03;5033190;28;20040;-67
2022/05/12 04:35:12;;;;;;;5.10;2.90;;;;;;;10.58;100.00;91449.91;5032812;28;20033;-66
2022/05/12 04:37:47;;;;;;;3.70;2.20;;;;;;;10.76;99.79;91453.56;5033194;28;20025;-67
2022/05/12 04:40:20;;;;;;;3.38;2.50;;;;;;;10.95;97.94;91454.25;5030174;28;20033;-67
2022/05/12 04:42:50;;;;;;;2.45;2.22;;;;;;;11.05;96.38;91462.03;5032994;28;20029;-67
2022/05/12 04:45:17;;;;;;;2.78;2.20;;;;;;;11.26;93.04;91461.59;5032905;28;20026;-66
2022/05/12 04:47:44;;;;;;;4.57;3.15;;;;;;;11.46;91.22;91460.34;5032938;28;20052;-67
2022/05/12 04:50:12;;;;;;;3.00;2.17;;;;;;;11.54;89.54;91451.66;5032814;28;20053;-66
2022/05/12 04:52:38;;;;;;;2.67;2.42;;;;;;;11.73;87.96;91462.94;5032608;28;20105;-67
2022/05/12 04:55:05;;;;;;;3.33;2.50;;;;;;;11.84;86.82;91466.19;5032495;28;20108;-66
2022/05/12 04:57:45;;;;;;;2.90;2.15;;;;;;;11.92;86.58;91458.25;5031336;28;20107;-67
2022/05/12 05:00:15;;;;;;;2.70;2.50;;;;;;;12.06;86.48;91466.19;5032776;28;20040;-66
2022/05/12 05:02:42;;;;;;;3.47;2.70;;;;;;;12.20;85.94;91458.91;5032843;28;20053;-66
2022/05/12 05:05:10;;;;;;;3.17;2.55;;;;;;;12.46;84.29;91455.56;5032868;28;20072;-66
2022/05/12 05:07:35;;;;;;;2.60;2.40;;;;;;;12.62;82.98;91458.63;5032513;28;20025;-66
2022/05/12 05:10:02;;;;;;;3.20;2.70;;;;;;;12.83;82.58;91454.34;5032543;28;20475;-66
2022/05/12 05:12:28;;;;;;;2.78;2.53;;;;;;;12.97;81.80;91459.56;5032469;28;20480;-66
2022/05/12 05:14:53;;;;;;;4.40;2.38;;;;;;;13.21;81.42;91462.66;5032340;28;20037;-66
2022/05/12 05:17:19;;;;;;;2.65;2.30;;;;;;;15.90;70.70;91455.53;5032300;28;20036;-67
2022/05/12 05:19:44;;;;;;;2.78;2.47;;;;;;;18.78;58.27;91466.63;5032372;28;20025;-66
2022/05/12 05:22:11;;;;;;;5.35;2.90;;;;;;;20.06;53.07;91468.94;5032344;28;20067;-67
2022/05/12 05:24:36;;;;;;;8.48;4.38;;;;;;;22.19;47.90;91461.16;5032495;28;20032;-67
2022/05/12 05:27:03;;;;;;;21.67;8.10;;;;;;;22.70;46.42;91458.72;5032802;28;20026;-64
2022/05/12 05:29:29;;;;;;;14.27;6.15;;;;;;;25.14;42.37;91460.19;5032846;28;20037;-65
2022/05/12 05:31:54;;;;;;;7.40;4.05;;;;;;;26.42;38.79;91458.31;5032454;28;20111;-65
2022/05/12 05:34:20;;;;;;;5.38;3.30;;;;;;;25.95;39.27;91460.31;5031976;28;20462;-65
2022/05/12 05:36:45;;;;;;;2.70;2.40;;;;;;;24.85;40.27;91462.00;5032095;28;20031;-65
2022/05/12 05:39:25;;;;;;;2.63;2.42;;;;;;;24.54;41.25;91466.94;5032234;28;20108;-65
2022/05/12 05:41:54;;;;;;;5.60;2.67;;;;;;;24.76;40.08;91465.84;5031879;28;20120;-65
2022/05/12 05:44:20;;;;;;;5.40;2.50;;;;;;;25.29;40.27;91467.25;5031725;28;20128;-66
2022/05/12 05:46:45;;;;;;;3.55;2.40;;;;;;;25.74;39.20;91463.03;5031858;28;20116;-67
2022/05/12 05:49:11;;;;;;;2.40;2.20;;;;;;;26.93;38.04;91464.41;5031633;28;20049;-67
2022/05/12 05:54:21;;;;;;;7.03;2.97;;;;;;;29.05;35.37;91465.94;5031460;28;20048;-68
2022/05/12 05:56:47;;;;;;;3.78;2.72;;;;;;;30.53;33.47;91467.69;5031578;28;20033;-67
2022/05/12 05:59:13;;;;;;;5.53;2.50;;;;;;;33.19;31.20;91474.00;5031524;28;20049;-67
2022/05/12 06:01:38;;;;;;;2.78;2.40;;;;;;;33.26;30.52;91473.78;5031626;28;20415;-67
2022/05/12 06:04:05;;;;;;;9.35;4.03;;;;;;;33.53;29.92;91475.44;5031401;28;20091;-69
2022/05/12 06:06:30;;;;;;;4.45;2.88;;;;;;;34.30;30.02;91473.50;5031395;28;20524;-70
2022/05/12 06:08:55;;;;;;;4.70;2.42;;;;;;;35.25;28.12;91472.31;5031561;28;20022;-67
2022/05/12 06:11:21;;;;;;;3.35;2.20;;;;;;;36.19;27.28;91475.97;5031378;28;20033;-67
2022/05/12 06:13:47;;;;;;;3.05;2.35;;;;;;;34.96;28.35;91469.00;5031286;28;20514;-67
2022/05/12 06:16:14;;;;;;;3.08;2.00;;;;;;;36.10;27.24;91476.69;5031703;28;20114;-67
2022/05/12 06:18:41;;;;;;;2.60;2.40;;;;;;;36.40;26.70;91468.81;5031358;28;20051;-67
2022/05/12 06:21:09;;;;;;;3.30;2.00;;;;;;;36.33;26.11;91478.22;5031255;28;20091;-69
2022/05/12 06:23:35;;;;;;;3.17;1.90;;;;;;;36.26;26.55;91475.66;5021094;28;20084;-67
2022/05/12 06:26:01;;;;;;;2.58;2.05;;;;;;;35.66;26.45;91470.44;5011283;28;20034;-67
2022/05/12 06:28:27;;;;;;;2.17;1.98;;;;;;;35.77;26.28;91473.56;5011259;28;20072;-67
2022/05/12 06:30:52;;;;;;;2.28;2.08;;;;;;;35.73;26.67;91464.63;5011125;28;20053;-68
2022/05/12 06:33:22;;;;;;;4.88;2.50;;;;;;;35.55;26.96;91481.91;5010896;28;20114;-68
2022/05/12 06:35:49;;;;;;;2.60;2.40;;;;;;;36.30;26.29;91482.63;5010894;28;20030;-67
2022/05/12 06:38:15;;;;;;;2.67;2.47;;;;;;;36.28;26.30;91481.53;5011189;28;20057;-66
2022/05/12 06:40:41;;;;;;;4.45;2.45;;;;;;;34.83;27.67;91472.53;5011266;28;20030;-67
2022/05/12 06:43:08;;;;;;;3.33;2.55;;;;;;;33.76;29.24;91475.13;5010775;28;20036;-66
2022/05/12 06:45:34;;;;;;;2.33;2.13;;;;;;;33.87;28.72;91469.31;5013372;28;20018;-66
2022/05/12 06:48:01;;;;;;;3.10;2.60;;;;;;;35.21;28.39;91479.19;5015190;28;20852;-66
2022/05/12 06:50:28;;;;;;;2.55;2.30;;;;;;;34.57;28.71;91476.59;5014641;28;20054;-67
2022/05/12 06:52:54;;;;;;;5.07;3.70;;;;;;;34.84;28.45;91485.13;5015098;28;20049;-65
2022/05/12 06:55:20;;;;;;;2.80;2.42;;;;;;;33.65;29.12;91480.97;5014961;28;20495;-66
2022/05/12 06:57:47;;;;;;;3.90;2.88;;;;;;;32.84;31.32;91475.75;5014862;28;20029;-65
2022/05/12 07:00:16;;;;;;;4.40;2.70;;;;;;;33.77;29.34;91475.88;5014883;28;20034;-66
2022/05/12 07:02:44;;;;;;;3.92;2.80;;;;;;;35.37;27.62;91467.97;5014793;28;20040;-66
2022/05/12 07:05:11;;;;;;;3.45;3.00;;;;;;;34.90;27.79;91476.31;5014419;28;20038;-65
2022/05/12 07:07:36;;;;;;;3.92;2.80;;;;;;;33.26;27.19;91481.28;5014775;28;20497;-66
2022/05/12 07:10:04;;;;;;;4.20;3.08;;;;;;;33.89;27.58;91472.41;5014604;28;20030;-66
2022/05/12 07:12:29;;;;;;;3.38;2.30;;;;;;;32.80;27.72;91471.47;5014762;28;20526;-66
2022/05/12 07:14:56;;;;;;;4.18;2.30;;;;;;;34.02;26.17;91464.13;5014635;28;20033;-65
2022/05/12 07:17:22;;;;;;;6.07;2.60;;;;;;;34.45;26.27;91458.81;5014659;28;20492;-66
2022/05/12 07:19:49;;;;;;;3.58;2.58;;;;;;;33.89;26.98;91464.91;5014219;28;20032;-66
2022/05/12 07:27:43;;;;;;;6.78;2.53;;;;;;;31.63;29.29;91461.28;5014550;28;20087;-67
2022/05/12 07:30:10;;;;;;;5.57;2.20;;;;;;;32.73;27.47;91453.16;5014588;28;20470;-68
2022/05/12 07:32:37;;;;;;;2.45;1.92;;;;;;;33.54;27.45;91447.41;5014114;28;20559;-65
2022/05/12 07:35:05;;;;;;;3.08;2.28;;;;;;;34.09;25.95;91453.66;5013797;28;20026;-66
2022/05/12 07:37:31;;;;;;;2.50;2.30;;;;;;;33.85;26.89;91458.72;5014259;28;20026;-66
2022/05/12 07:39:56;;;;;;;2.33;2.10;;;;;;;33.40;25.66;91458.84;5014275;28;20511;-65
2022/05/12 07:42:22;;;;;;;7.10;5.22;;;;;;;34.42;25.18;91456.19;5013975;28;20404;-66
2022/05/12 07:44:47;;;;;;;2.25;2.03;;;;;;;36.86;23.49;91458.63;5014269;28;20034;-65
2022/05/12 07:47:13;;;;;;;7.97;2.35;;;;;;;37.30;24.09;91459.13;5014031;28;20072;-66
2022/05/12 07:49:40;;;;;;;2.15;1.95;;;;;;;36.08;23.34;91454.22;5013655;28;20117;-65
2022/05/12 07:52:09;;;;;;;4.53;2.15;;;;;;;34.40;24.07;91466.88;5013969;28;20117;-64
2022/05/12 07:54:36;;;;;;;2.90;2.30;;;;;;;34.63;25.48;91462.97;5013907;28;20022;-65
2022/05/12 07:57:02;;;;;;;2.30;2.10;;;;;;;33.33;26.38;91461.81;5013486;28;20038;-64
2022/05/12 07:59:29;;;;;;;4.88;2.75;;;;;;;31.92;28.12;91458.69;5013961;28;20085;-64
2022/05/12 08:01:58;;;;;;;4.22;2.40;;;;;;;31.90;27.85;91458.34;5013710;28;20180;-64
2022/05/12 08:04:25;;;;;;;3.55;2.33;;;;;;;33.00;27.37;91464.66;5013270;28;20104;-64
2022/05/12 08:06:51;;;;;;;4.72;2.95;;;;;;;33.03;27.74;91468.53;5013928;28;20033;-64
2022/05/12 08:09:16;;;;;;;3.88;2.60;;;;;;;31.60;29.73;91460.16;5013713;28;20038;-64
2022/05/12 08:11:42;;;;;;;2.60;2.40;;;;;;;32.86;27.46;91456.78;5013821;28;20034;-65
2022/05/12 08:14:07;;;;;;;2.78;2.50;;;;;;;34.55;26.28;91454.13;5013602;28;20105;-65
2022/05/12 08:16:34;;;;;;;2.40;2.03;;;;;;;36.26;24.97;91461.81;5013932;28;20030;-65
2022/05/12 08:18:59;;;;;;;2.25;2.00;;;;;;;35.94;24.55;91455.53;5013627;28;20165;-66
2022/05/12 08:21:25;;;;;;;2.63;2.38;;;;;;;36.01;25.46;91457.28;5012385;28;20125;-66
2022/05/12 08:23:51;;;;;;;2.75;2.55;;;;;;;33.74;27.47;91449.19;5013401;28;20416;-65
2022/05/12 08:26:17;;;;;;;3.17;2.45;;;;;;;32.23;28.08;91451.66;5045195;28;20475;-66
2022/05/12 08:28:42;;;;;;;2.55;2.35;;;;;;;33.21;28.72;91451.50;5013354;28;20026;-65
2022/05/12 08:31:09;;;;;;;3.70;2.63;;;;;;;32.27;29.53;91459.81;5013454;28;20033;-65
2022/05/12 08:33:34;;;;;;;2.63;2.35;;;;;;;31.53;29.88;91449.28;5013028;28;20477;-66
2022/05/12 08:36:00;;;;;;;2.25;2.05;;;;;;;33.01;28.73;91449.69;5013369;28;20045;-66
2022/05/12 08:38:25;;;;;;;2.50;2.30;;;;;;;32.31;29.47;91436.50;5013182;28;20069;-66
2022/05/12 08:41:15;;;;;;;2.30;2.03;;;;;;;33.51;27.90;91444.75;5013223;28;20103;-66
2022/05/12 08:43:43;;;;;;;3.53;2.30;;;;;;;33.99;26.79;91445.69;5013151;28;20087;-66
2022/05/12 08:46:12;;;;;;;2.63;2.42;;;;;;;33.77;26.99;91437.25;5013119;28;20034;-65
2022/05/12 08:48:40;;;;;;;2.90;2.30;;;;;;;30.94;29.79;91447.38;5013081;28;20446;-65
2022/05/12 08:51:07;;;;;;;2.70;2.33;;;;;;;31.09;29.54;91445.88;5013190;28;20075;-66
2022/05/12 08:53:42;;;;;;;5.32;2.60;;;;;;;32.33;29.86;91452.59;5012748;28;20469;-66
2022/05/12 08:56:09;;;;;;;4.95;2.97;;;;;;;29.77;31.90;91448.13;5013003;28;20022;-66
2022/05/12 08:58:38;;;;;;;3.85;3.22;;;;;;;25.47;36.63;91442.75;5013178;28;20057;-66
2022/05/12 09:01:17;;;;;;;9.05;4.47;;;;;;;23.25;41.07;91450.81;5012957;28;20022;-65
2022/05/12 09:04:07;;;;;;;9.50;3.40;;;;;;;24.78;40.52;91452.69;5012849;28;20033;-65
2022/05/12 09:06:48;;;;;;;6.78;3.30;;;;;;;29.59;32.77;91453.09;5012847;28;20101;-65
2022/05/12 09:09:26;;;;;;;4.90;2.60;;;;;;;31.57;29.68;91455.50;5012568;28;20025;-65
2022/05/12 09:12:07;;;;;;;3.25;2.95;;;;;;;32.89;27.79;91457.88;5012627;28;20026;-66
2022/05/12 09:15:00;;;;;;;5.65;2.72;;;;;;;34.32;27.88;91460.03;5012515;28;20448;-65
2022/05/12 09:17:35;;;;;;;4.05;2.78;;;;;;;35.62;26.24;91456.72;5010375;28;20389;-65
2022/05/12 09:20:01;;;;;;;3.67;2.30;;;;;;;34.76;26.65;91450.69;5012566;28;20428;-65
2022/05/12 09:22:29;;;;;;;3.08;2.75;;;;;;;32.95;28.20;91448.66;5012576;28;20060;-65
2022/05/12 09:24:55;;;;;;;4.22;2.47;;;;;;;35.19;26.60;91454.75;5012547;28;20032;-66
2022/05/12 09:27:32;;;;;;;3.67;3.05;;;;;;;35.24;26.44;91453.38;5012676;28;20034;-66
2022/05/12 09:29:58;;;;;;;5.82;4.20;;;;;;;34.95;26.47;91456.38;5012683;28;20112;-65
2022/05/12 09:32:31;;;;;;;3.25;2.72;;;;;;;34.22;27.43;91459.13;5012338;28;20085;-66
2022/05/12 09:35:08;;;;;;;4.78;3.03;;;;;;;34.03;27.12;91455.41;5012245;28;20026;-65
2022/05/12 09:37:36;;;;;;;5.63;2.50;;;;;;;33.74;27.33;91457.47;5012318;28;20030;-65
2022/05/12 09:40:26;;;;;;;7.97;2.42;;;;;;;33.69;27.16;91447.75;5012279;28;20029;-65
2022/05/12 09:42:56;;;;;;;2.55;2.35;;;;;;;32.98;28.46;91455.25;5012137;28;20021;-65
2022/05/12 09:45:24;;;;;;;2.83;2.28;;;;;;;32.25;28.57;91454.75;5012148;28;20056;-65
2022/05/12 09:47:49;;;;;;;3.25;2.20;;;;;;;33.59;25.82;91451.59;5012184;28;20065;-65
2022/05/12 09:50:24;;;;;;;3.20;2.35;;;;;;;33.80;27.15;91447.44;5011963;28;20093;-65
2022/05/12 09:52:58;;;;;;;5.65;2.78;;;;;;;34.44;26.33;91445.44;5011987;28;20444;-65
2022/05/12 09:55:27;;;;;;;4.30;3.00;;;;;;;33.47;27.90;91436.59;5011942;28;20072;-65
2022/05/12 09:58:02;;;;;;;3.67;2.67;;;;;;;31.15;29.62;91448.91;5011987;28;20046;-64
2022/05/12 10:00:30;;;;;;;5.20;2.20;;;;;;;31.20;28.62;91437.44;5011864;28;20115;-64
2022/05/12 10:09:00;;;;;;;4.60;2.80;;;;;;;31.00;31.34;91431.91;5012070;28;20561;-64
2022/05/12 10:11:27;;;;;;;8.18;3.60;;;;;;;31.35;29.24;91432.41;5011608;28;20273;-64
2022/05/12 10:13:58;;;;;;;5.10;2.40;;;;;;;30.83;30.90;91425.59;5011492;28;20018;-64
2022/05/12 10:16:28;;;;;;;2.22;2.03;;;;;;;32.69;26.77;91425.72;5007981;28;20041;-64
2022/05/12 10:18:57;;;;;;;5.35;3.90;;;;;;;33.35;27.12;91424.31;5011236;28;20508;-64
2022/05/12 10:21:42;;;;;;;5.40;3.20;;;;;;;32.82;27.61;91425.75;5011436;28;20501;-63
2022/05/12 10:24:33;;;;;;;5.38;2.90;;;;;;;33.39;27.19;91418.69;5011400;28;20057;-63
2022/05/12 10:27:16;;;;;;;6.93;3.08;;;;;;;32.89;27.55;91422.84;5011142;28;20112;-64
2022/05/12 10:29:57;;;;;;;3.47;1.90;;;;;;;32.92;27.80;91418.44;5011323;28;20050;-64
2022/05/12 10:32:47;;;;;;;4.32;2.25;;;;;;;32.83;26.03;91415.53;5011325;28;20039;-64
2022/05/12 10:35:22;;;;;;;2.60;2.25;;;;;;;32.17;27.58;91414.81;5010798;28;20401;-63
2022/05/12 10:38:17;;;;;;;9.52;3.17;;;;;;;31.35;29.04;91404.91;5011628;28;20037;-64
2022/05/12 10:40:44;;;;;;;3.35;2.72;;;;;;;32.34;27.44;91408.09;5011212;28;20030;-64
2022/05/12 10:43:37;;;;;;;4.10;2.78;;;;;;;31.30;29.26;91408.94;5011116;28;20033;-63
2022/05/12 10:46:13;;;;;;;6.38;2.40;;;;;;;32.21;28.48;91404.50;5011164;28;20143;-65
2022/05/12 10:48:49;;;;;;;2.00;1.85;;;;;;;32.89;25.36;91397.25;5010576;28;20033;-64
2022/05/12 10:51:45;;;;;;;2.22;2.00;;;;;;;31.55;28.16;91400.91;5011337;28;20037;-64
2022/05/12 10:54:25;;;;;;;2.15;1.95;;;;;;;34.28;25.18;91393.84;5010952;28;20045;-65
2022/05/12 10:57:03;;;;;;;5.30;2.88;;;;;;;35.75;23.96;91403.28;5011065;28;20064;-66
2022/05/12 11:00:13;;;;;;;3.72;2.63;;;;;;;34.21;26.18;91394.84;5011086;28;20033;-66
2022/05/12 11:02:48;;;;;;;2.50;2.30;;;;;;;34.13;26.61;91399.06;4998945;28;20046;-66
2022/05/12 11:05:16;;;;;;;9.82;2.83;;;;;;;31.95;27.97;91391.78;5010660;28;20030;-66
2022/05/12 11:07:48;;;;;;;9.93;2.63;;;;;;;31.32;28.37;91383.78;5011155;28;20034;-65
2022/05/12 11:10:31;;;;;;;10.35;6.47;;;;;;;31.20;28.49;91385.97;5011061;28;20042;-65
2022/05/12 11:13:01;;;;;;;3.53;2.90;;;;;;;30.39;30.40;91380.09;5010869;28;20124;-65
2022/05/12 11:15:49;;;;;;;4.13;2.70;;;;;;;31.82;27.96;91378.69;5010883;28;20034;-65
2022/05/12 11:18:23;;;;;;;2.25;2.05;;;;;;;30.90;28.01;91364.22;5010573;28;20188;-67
2022/05/12 11:20:59;;;;;;;2.95;2.47;;;;;;;31.36;27.68;91367.97;5011050;28;20034;-65
2022/05/12 11:23:28;;;;;;;3.20;2.88;;;;;;;29.05;30.01;91368.09;5010689;28;20033;-64
2022/05/12 11:26:29;;;;;;;3.22;2.90;;;;;;;28.97;30.87;91365.84;5010962;28;20096;-69
2022/05/12 11:32:20;;;;;;;7.10;3.47;;;;;;;32.29;26.86;91356.31;5013512;28;20068;-64
2022/05/12 11:34:50;;;;;;;6.00;4.28;;;;;;;31.78;28.91;91346.97;5014104;28;20496;-63
2022/05/12 11:37:53;;;;;;;3.63;2.40;;;;;;;32.03;27.59;91351.84;5014477;28;20038;-64
2022/05/12 11:40:41;;;;;;;2.85;2.50;;;;;;;32.82;26.96;91345.06;5014422;28;20034;-65
2022/05/12 11:46:21;;;;;;;4.03;2.83;;;;;;;34.49;24.82;91340.66;5014300;28;20061;-64
2022/05/12 11:49:15;;;;;;;8.07;3.30;;;;;;;31.51;28.04;91341.69;5013642;28;20493;-66
2022/05/12 11:52:20;;;;;;;4.18;2.17;;;;;;;30.74;28.67;91333.94;5004926;28;20574;-65
2022/05/12 11:54:53;;;;;;;5.07;2.25;;;;;;;30.33;29.86;91330.41;5012820;28;20061;-65
2022/05/12 11:57:32;;;;;;;;;;;;;;;30.97;28.97;91337.38;5014547;28;20052;-65
2022/05/12 12:00:00;;;;;;;2.45;2.17;;;;;;;32.75;26.05;91330.28;5014024;28;19917;-65
2022/05/12 12:02:29;;;;;;;2.60;2.30;;;;;;;31.93;28.36;91337.16;5013867;28;20026;-66
2022/05/12 12:04:57;;;;;;;3.10;2.53;;;;;;;31.02;29.80;91332.56;5013814;28;20080;-65
2022/05/12 12:07:31;;;;;;;5.82;3.28;;;;;;;31.68;27.29;91329.50;5013689;28;20117;-64